sensor_id;sensor_type;location;lat;lon;timestamp;P1;durP1;ratioP1;P2;durP2;ratioP2
27957;SDS011;15295;42.658;23.374;2023-04-25T00:01:10;6.43;;;4.28;;
27957;SDS011;15295;42.658;23.374;2023-04-25T00:03:38;6.65;;;4.50;;
27957;SDS011;15295;42.658;23.374;2023-04-25T00:06:04;5.80;;;4.88;;
27957;SDS011;15295;42.658;23.374;2023-04-25T00:08:29;6.35;;;4.43;;
27957;SDS011;15295;42.658;23.374;2023-04-25T00:10:57;7.65;;;4.65;;
27957;SDS011;15295;42.658;23.374;2023-04-25T00:13:23;6.75;;;5.15;;
27957;SDS011;15295;42.658;23.374;2023-04-25T00:15:50;5.78;;;4.78;;
27957;SDS011;15295;42.658;23.374;2023-04-25T00:18:18;7.43;;;5.63;;
27957;SDS011;15295;42.658;23.374;2023-04-25T00:20:45;8.00;;;4.78;;
27957;SDS011;15295;42.658;23.374;2023-04-25T00:23:15;7.25;;;5.40;;
27957;SDS011;15295;42.658;23.374;2023-04-25T00:25:42;8.25;;;5.53;;
27957;SDS011;15295;42.658;23.374;2023-04-25T00:28:09;7.45;;;5.95;;
27957;SDS011;15295;42.658;23.374;2023-04-25T00:30:36;9.00;;;6.18;;
27957;SDS011;15295;42.658;23.374;2023-04-25T00:33:01;7.03;;;5.60;;
27957;SDS011;15295;42.658;23.374;2023-04-25T00:35:27;7.85;;;6.32;;
27957;SDS011;15295;42.658;23.374;2023-04-25T00:37:52;7.97;;;6.30;;
27957;SDS011;15295;42.658;23.374;2023-04-25T00:40:20;7.93;;;6.20;;
27957;SDS011;15295;42.658;23.374;2023-04-25T00:42:46;10.48;;;6.82;;
27957;SDS011;15295;42.658;23.374;2023-04-25T00:45:13;10.80;;;6.20;;
27957;SDS011;15295;42.658;23.374;2023-04-25T00:47:40;9.80;;;6.53;;
27957;SDS011;15295;42.658;23.374;2023-04-25T00:50:08;7.93;;;6.07;;
27957;SDS011;15295;42.658;23.374;2023-04-25T00:52:34;9.57;;;6.20;;
27957;SDS011;15295;42.658;23.374;2023-04-25T00:55:00;8.32;;;5.85;;
27957;SDS011;15295;42.658;23.374;2023-04-25T00:57:26;8.60;;;5.95;;
27957;SDS011;15295;42.658;23.374;2023-04-25T00:59:51;13.52;;;6.13;;
27957;SDS011;15295;42.658;23.374;2023-04-25T01:02:18;6.80;;;4.75;;
27957;SDS011;15295;42.658;23.374;2023-04-25T01:04:45;7.03;;;4.88;;
27957;SDS011;15295;42.658;23.374;2023-04-25T01:07:12;6.72;;;4.80;;
27957;SDS011;15295;42.658;23.374;2023-04-25T01:09:38;6.97;;;4.88;;
27957;SDS011;15295;42.658;23.374;2023-04-25T01:12:03;6.78;;;5.45;;
27957;SDS011;15295;42.658;23.374;2023-04-25T01:14:30;6.82;;;5.03;;
27957;SDS011;15295;42.658;23.374;2023-04-25T01:16:57;7.40;;;5.15;;
27957;SDS011;15295;42.658;23.374;2023-04-25T01:19:23;8.15;;;5.85;;
27957;SDS011;15295;42.658;23.374;2023-04-25T01:21:52;10.00;;;5.60;;
27957;SDS011;15295;42.658;23.374;2023-04-25T01:24:17;7.40;;;5.53;;
27957;SDS011;15295;42.658;23.374;2023-04-25T01:26:43;5.57;;;4.80;;
27957;SDS011;15295;42.658;23.374;2023-04-25T01:29:14;6.30;;;4.88;;
27957;SDS011;15295;42.658;23.374;2023-04-25T01:31:42;6.85;;;5.13;;
27957;SDS011;15295;42.658;23.374;2023-04-25T01:34:09;9.32;;;5.57;;
27957;SDS011;15295;42.658;23.374;2023-04-25T01:36:35;7.00;;;5.15;;
27957;SDS011;15295;42.658;23.374;2023-04-25T01:39:00;7.38;;;5.18;;
27957;SDS011;15295;42.658;23.374;2023-04-25T01:41:26;8.05;;;5.53;;
27957;SDS011;15295;42.658;23.374;2023-04-25T01:43:52;7.47;;;5.03;;
27957;SDS011;15295;42.658;23.374;2023-04-25T01:46:17;7.22;;;5.85;;
27957;SDS011;15295;42.658;23.374;2023-04-25T01:48:43;10.38;;;6.03;;
27957;SDS011;15295;42.658;23.374;2023-04-25T01:51:09;10.07;;;5.90;;
27957;SDS011;15295;42.658;23.374;2023-04-25T01:53:36;10.18;;;6.10;;
27957;SDS011;15295;42.658;23.374;2023-04-25T01:56:02;15.02;;;6.10;;
27957;SDS011;15295;42.658;23.374;2023-04-25T01:58:28;11.07;;;6.65;;
27957;SDS011;15295;42.658;23.374;2023-04-25T02:00:53;8.60;;;5.82;;
27957;SDS011;15295;42.658;23.374;2023-04-25T02:03:19;7.25;;;6.10;;
27957;SDS011;15295;42.658;23.374;2023-04-25T02:05:44;7.70;;;6.13;;
27957;SDS011;15295;42.658;23.374;2023-04-25T02:08:10;8.68;;;6.10;;
27957;SDS011;15295;42.658;23.374;2023-04-25T02:10:35;8.27;;;6.25;;
27957;SDS011;15295;42.658;23.374;2023-04-25T02:13:01;8.07;;;6.32;;
27957;SDS011;15295;42.658;23.374;2023-04-25T02:15:27;8.77;;;6.30;;
27957;SDS011;15295;42.658;23.374;2023-04-25T02:17:53;9.38;;;6.30;;
27957;SDS011;15295;42.658;23.374;2023-04-25T02:20:21;11.00;;;6.80;;
27957;SDS011;15295;42.658;23.374;2023-04-25T02:22:48;9.52;;;6.82;;
27957;SDS011;15295;42.658;23.374;2023-04-25T02:25:13;8.48;;;6.32;;
27957;SDS011;15295;42.658;23.374;2023-04-25T02:27:40;8.63;;;6.30;;
27957;SDS011;15295;42.658;23.374;2023-04-25T02:30:06;8.85;;;6.75;;
27957;SDS011;15295;42.658;23.374;2023-04-25T02:32:32;8.57;;;6.35;;
27957;SDS011;15295;42.658;23.374;2023-04-25T02:34:59;8.93;;;6.60;;
27957;SDS011;15295;42.658;23.374;2023-04-25T02:37:29;12.43;;;6.85;;
27957;SDS011;15295;42.658;23.374;2023-04-25T02:39:54;9.38;;;7.05;;
27957;SDS011;15295;42.658;23.374;2023-04-25T02:42:20;9.90;;;6.90;;
27957;SDS011;15295;42.658;23.374;2023-04-25T02:44:45;15.02;;;7.22;;
27957;SDS011;15295;42.658;23.374;2023-04-25T02:47:11;11.70;;;7.70;;
27957;SDS011;15295;42.658;23.374;2023-04-25T02:49:36;12.13;;;7.43;;
27957;SDS011;15295;42.658;23.374;2023-04-25T02:52:02;10.45;;;7.55;;
27957;SDS011;15295;42.658;23.374;2023-04-25T02:54:27;10.10;;;7.35;;
27957;SDS011;15295;42.658;23.374;2023-04-25T02:56:53;8.93;;;7.07;;
27957;SDS011;15295;42.658;23.374;2023-04-25T02:59:18;11.50;;;8.07;;
27957;SDS011;15295;42.658;23.374;2023-04-25T03:01:43;10.07;;;7.88;;
27957;SDS011;15295;42.658;23.374;2023-04-25T03:04:09;11.27;;;7.82;;
27957;SDS011;15295;42.658;23.374;2023-04-25T03:06:34;13.02;;;7.78;;
27957;SDS011;15295;42.658;23.374;2023-04-25T03:09:00;10.73;;;7.80;;
27957;SDS011;15295;42.658;23.374;2023-04-25T03:11:25;9.88;;;7.88;;
27957;SDS011;15295;42.658;23.374;2023-04-25T03:13:51;11.30;;;8.10;;
27957;SDS011;15295;42.658;23.374;2023-04-25T03:16:16;10.50;;;8.20;;
27957;SDS011;15295;42.658;23.374;2023-04-25T03:18:41;11.63;;;9.00;;
27957;SDS011;15295;42.658;23.374;2023-04-25T03:21:07;11.10;;;8.55;;
27957;SDS011;15295;42.658;23.374;2023-04-25T03:23:32;12.75;;;7.78;;
27957;SDS011;15295;42.658;23.374;2023-04-25T03:25:58;9.68;;;7.88;;
27957;SDS011;15295;42.658;23.374;2023-04-25T03:28:24;10.52;;;7.60;;
27957;SDS011;15295;42.658;23.374;2023-04-25T03:30:49;11.60;;;8.32;;
27957;SDS011;15295;42.658;23.374;2023-04-25T03:33:15;12.35;;;8.02;;
27957;SDS011;15295;42.658;23.374;2023-04-25T03:35:40;10.50;;;8.10;;
27957;SDS011;15295;42.658;23.374;2023-04-25T03:38:06;11.32;;;8.10;;
27957;SDS011;15295;42.658;23.374;2023-04-25T03:40:31;13.50;;;8.68;;
27957;SDS011;15295;42.658;23.374;2023-04-25T03:42:56;11.50;;;8.98;;
27957;SDS011;15295;42.658;23.374;2023-04-25T03:45:22;10.40;;;8.07;;
27957;SDS011;15295;42.658;23.374;2023-04-25T03:47:48;11.65;;;9.00;;
27957;SDS011;15295;42.658;23.374;2023-04-25T03:50:13;12.82;;;8.75;;
27957;SDS011;15295;42.658;23.374;2023-04-25T03:52:38;13.27;;;9.05;;
27957;SDS011;15295;42.658;23.374;2023-04-25T03:55:05;12.35;;;8.73;;
27957;SDS011;15295;42.658;23.374;2023-04-25T03:57:31;13.88;;;10.00;;
27957;SDS011;15295;42.658;23.374;2023-04-25T03:59:57;12.80;;;9.90;;
27957;SDS011;15295;42.658;23.374;2023-04-25T04:02:22;14.63;;;10.30;;
27957;SDS011;15295;42.658;23.374;2023-04-25T04:04:47;15.30;;;11.15;;
27957;SDS011;15295;42.658;23.374;2023-04-25T04:07:13;16.13;;;10.90;;
27957;SDS011;15295;42.658;23.374;2023-04-25T04:09:38;13.85;;;10.07;;
27957;SDS011;15295;42.658;23.374;2023-04-25T04:12:04;15.55;;;10.77;;
27957;SDS011;15295;42.658;23.374;2023-04-25T04:14:30;16.08;;;11.27;;
27957;SDS011;15295;42.658;23.374;2023-04-25T04:16:56;19.50;;;11.05;;
27957;SDS011;15295;42.658;23.374;2023-04-25T04:19:21;12.48;;;9.23;;
27957;SDS011;15295;42.658;23.374;2023-04-25T04:21:47;13.07;;;9.23;;
27957;SDS011;15295;42.658;23.374;2023-04-25T04:24:12;13.20;;;9.68;;
27957;SDS011;15295;42.658;23.374;2023-04-25T04:26:38;15.57;;;10.02;;
27957;SDS011;15295;42.658;23.374;2023-04-25T04:29:04;11.93;;;8.88;;
27957;SDS011;15295;42.658;23.374;2023-04-25T04:31:29;10.82;;;8.80;;
27957;SDS011;15295;42.658;23.374;2023-04-25T04:33:55;13.50;;;9.15;;
27957;SDS011;15295;42.658;23.374;2023-04-25T04:36:20;10.18;;;8.13;;
27957;SDS011;15295;42.658;23.374;2023-04-25T04:38:47;12.50;;;8.80;;
27957;SDS011;15295;42.658;23.374;2023-04-25T04:41:12;11.65;;;7.25;;
27957;SDS011;15295;42.658;23.374;2023-04-25T04:43:38;10.65;;;7.93;;
27957;SDS011;15295;42.658;23.374;2023-04-25T04:46:04;10.02;;;7.40;;
27957;SDS011;15295;42.658;23.374;2023-04-25T04:48:33;9.70;;;7.72;;
27957;SDS011;15295;42.658;23.374;2023-04-25T04:51:02;9.13;;;7.45;;
27957;SDS011;15295;42.658;23.374;2023-04-25T04:53:29;7.35;;;6.05;;
27957;SDS011;15295;42.658;23.374;2023-04-25T04:55:55;9.43;;;6.70;;
27957;SDS011;15295;42.658;23.374;2023-04-25T04:58:21;8.43;;;6.85;;
27957;SDS011;15295;42.658;23.374;2023-04-25T05:00:54;9.40;;;7.47;;
27957;SDS011;15295;42.658;23.374;2023-04-25T05:03:20;9.48;;;7.47;;
27957;SDS011;15295;42.658;23.374;2023-04-25T05:05:45;11.13;;;8.48;;
27957;SDS011;15295;42.658;23.374;2023-04-25T05:08:11;14.00;;;9.27;;
27957;SDS011;15295;42.658;23.374;2023-04-25T05:10:36;19.02;;;13.60;;
27957;SDS011;15295;42.658;23.374;2023-04-25T05:13:02;17.33;;;10.82;;
27957;SDS011;15295;42.658;23.374;2023-04-25T05:15:27;14.48;;;11.10;;
27957;SDS011;15295;42.658;23.374;2023-04-25T05:17:53;16.05;;;10.38;;
27957;SDS011;15295;42.658;23.374;2023-04-25T05:20:18;13.70;;;10.02;;
27957;SDS011;15295;42.658;23.374;2023-04-25T05:22:44;12.18;;;9.85;;
27957;SDS011;15295;42.658;23.374;2023-04-25T05:25:09;14.18;;;10.68;;
27957;SDS011;15295;42.658;23.374;2023-04-25T05:27:35;18.30;;;12.07;;
27957;SDS011;15295;42.658;23.374;2023-04-25T05:30:00;15.38;;;11.68;;
27957;SDS011;15295;42.658;23.374;2023-04-25T05:32:26;16.83;;;12.07;;
27957;SDS011;15295;42.658;23.374;2023-04-25T05:34:52;14.80;;;11.93;;
27957;SDS011;15295;42.658;23.374;2023-04-25T05:37:18;13.98;;;11.10;;
27957;SDS011;15295;42.658;23.374;2023-04-25T05:39:48;14.88;;;11.75;;
27957;SDS011;15295;42.658;23.374;2023-04-25T05:42:13;15.15;;;11.52;;
27957;SDS011;15295;42.658;23.374;2023-04-25T05:44:39;15.88;;;10.02;;
27957;SDS011;15295;42.658;23.374;2023-04-25T05:47:04;13.48;;;10.43;;
27957;SDS011;15295;42.658;23.374;2023-04-25T05:49:29;12.18;;;8.95;;
27957;SDS011;15295;42.658;23.374;2023-04-25T05:51:55;13.38;;;9.43;;
27957;SDS011;15295;42.658;23.374;2023-04-25T05:54:22;13.50;;;10.20;;
27957;SDS011;15295;42.658;23.374;2023-04-25T05:56:48;13.32;;;9.95;;
27957;SDS011;15295;42.658;23.374;2023-04-25T05:59:15;14.40;;;10.75;;
27957;SDS011;15295;42.658;23.374;2023-04-25T06:01:47;16.83;;;10.88;;
27957;SDS011;15295;42.658;23.374;2023-04-25T06:04:26;15.68;;;9.25;;
27957;SDS011;15295;42.658;23.374;2023-04-25T06:06:51;10.93;;;7.75;;
27957;SDS011;15295;42.658;23.374;2023-04-25T06:09:17;12.68;;;8.63;;
27957;SDS011;15295;42.658;23.374;2023-04-25T06:11:46;14.38;;;9.73;;
27957;SDS011;15295;42.658;23.374;2023-04-25T06:14:13;15.82;;;10.68;;
27957;SDS011;15295;42.658;23.374;2023-04-25T06:16:53;10.45;;;8.45;;
27957;SDS011;15295;42.658;23.374;2023-04-25T06:19:20;13.23;;;8.93;;
27957;SDS011;15295;42.658;23.374;2023-04-25T06:21:59;13.57;;;8.57;;
27957;SDS011;15295;42.658;23.374;2023-04-25T06:24:29;16.92;;;11.05;;
27957;SDS011;15295;42.658;23.374;2023-04-25T06:26:57;19.30;;;11.38;;
27957;SDS011;15295;42.658;23.374;2023-04-25T06:29:26;10.75;;;9.00;;
27957;SDS011;15295;42.658;23.374;2023-04-25T06:31:51;12.00;;;8.10;;
27957;SDS011;15295;42.658;23.374;2023-04-25T06:34:17;10.00;;;8.30;;
27957;SDS011;15295;42.658;23.374;2023-04-25T06:36:49;11.55;;;8.05;;
27957;SDS011;15295;42.658;23.374;2023-04-25T06:39:15;11.15;;;7.60;;
27957;SDS011;15295;42.658;23.374;2023-04-25T06:41:41;11.60;;;8.65;;
27957;SDS011;15295;42.658;23.374;2023-04-25T06:44:06;9.95;;;7.60;;
27957;SDS011;15295;42.658;23.374;2023-04-25T06:46:33;18.00;;;11.25;;
27957;SDS011;15295;42.658;23.374;2023-04-25T06:48:58;10.88;;;7.75;;
27957;SDS011;15295;42.658;23.374;2023-04-25T06:51:24;14.05;;;8.50;;
27957;SDS011;15295;42.658;23.374;2023-04-25T06:53:49;14.88;;;8.57;;
27957;SDS011;15295;42.658;23.374;2023-04-25T06:56:16;12.13;;;7.43;;
27957;SDS011;15295;42.658;23.374;2023-04-25T06:58:41;10.23;;;6.90;;
27957;SDS011;15295;42.658;23.374;2023-04-25T07:01:10;9.48;;;6.07;;
27957;SDS011;15295;42.658;23.374;2023-04-25T07:03:36;7.00;;;4.50;;
27957;SDS011;15295;42.658;23.374;2023-04-25T07:06:02;6.70;;;4.78;;
27957;SDS011;15295;42.658;23.374;2023-04-25T07:08:31;8.35;;;5.10;;
27957;SDS011;15295;42.658;23.374;2023-04-25T07:10:56;9.27;;;6.78;;
27957;SDS011;15295;42.658;23.374;2023-04-25T07:13:22;7.93;;;6.05;;
27957;SDS011;15295;42.658;23.374;2023-04-25T07:15:47;6.72;;;4.53;;
27957;SDS011;15295;42.658;23.374;2023-04-25T07:18:14;9.02;;;5.20;;
27957;SDS011;15295;42.658;23.374;2023-04-25T07:20:40;10.23;;;5.88;;
27957;SDS011;15295;42.658;23.374;2023-04-25T07:23:05;9.88;;;6.45;;
27957;SDS011;15295;42.658;23.374;2023-04-25T07:25:31;28.83;;;18.90;;
27957;SDS011;15295;42.658;23.374;2023-04-25T07:27:56;10.73;;;6.05;;
27957;SDS011;15295;42.658;23.374;2023-04-25T07:30:22;15.43;;;8.15;;
27957;SDS011;15295;42.658;23.374;2023-04-25T07:32:53;13.90;;;7.85;;
27957;SDS011;15295;42.658;23.374;2023-04-25T07:35:27;12.00;;;8.20;;
27957;SDS011;15295;42.658;23.374;2023-04-25T07:37:55;11.20;;;5.68;;
27957;SDS011;15295;42.658;23.374;2023-04-25T07:40:20;9.98;;;5.88;;
27957;SDS011;15295;42.658;23.374;2023-04-25T07:42:46;13.48;;;8.23;;
27957;SDS011;15295;42.658;23.374;2023-04-25T07:45:11;14.88;;;7.65;;
27957;SDS011;15295;42.658;23.374;2023-04-25T07:47:37;13.80;;;6.40;;
27957;SDS011;15295;42.658;23.374;2023-04-25T07:50:03;13.98;;;7.90;;
27957;SDS011;15295;42.658;23.374;2023-04-25T07:52:29;13.68;;;8.63;;
27957;SDS011;15295;42.658;23.374;2023-04-25T07:54:58;16.95;;;8.50;;
27957;SDS011;15295;42.658;23.374;2023-04-25T07:59:56;14.82;;;8.65;;
27957;SDS011;15295;42.658;23.374;2023-04-25T08:02:22;12.05;;;6.95;;
27957;SDS011;15295;42.658;23.374;2023-04-25T08:04:47;12.15;;;6.75;;
27957;SDS011;15295;42.658;23.374;2023-04-25T08:07:14;11.93;;;8.60;;
27957;SDS011;15295;42.658;23.374;2023-04-25T08:09:40;18.83;;;8.20;;
27957;SDS011;15295;42.658;23.374;2023-04-25T08:12:05;14.02;;;8.20;;
27957;SDS011;15295;42.658;23.374;2023-04-25T08:14:31;12.00;;;7.88;;
27957;SDS011;15295;42.658;23.374;2023-04-25T08:17:01;11.45;;;7.40;;
27957;SDS011;15295;42.658;23.374;2023-04-25T08:19:29;12.35;;;7.50;;
27957;SDS011;15295;42.658;23.374;2023-04-25T08:21:58;15.13;;;9.15;;
27957;SDS011;15295;42.658;23.374;2023-04-25T08:24:23;11.82;;;7.82;;
27957;SDS011;15295;42.658;23.374;2023-04-25T08:26:49;12.25;;;7.35;;
27957;SDS011;15295;42.658;23.374;2023-04-25T08:29:22;8.85;;;6.60;;
27957;SDS011;15295;42.658;23.374;2023-04-25T08:31:51;12.45;;;7.18;;
27957;SDS011;15295;42.658;23.374;2023-04-25T08:34:19;8.88;;;5.75;;
27957;SDS011;15295;42.658;23.374;2023-04-25T08:36:48;43.47;;;27.17;;
27957;SDS011;15295;42.658;23.374;2023-04-25T08:39:27;12.93;;;7.25;;
27957;SDS011;15295;42.658;23.374;2023-04-25T08:41:52;16.25;;;9.40;;
27957;SDS011;15295;42.658;23.374;2023-04-25T08:44:20;10.73;;;7.18;;
27957;SDS011;15295;42.658;23.374;2023-04-25T08:46:47;17.63;;;9.45;;
27957;SDS011;15295;42.658;23.374;2023-04-25T08:49:14;9.95;;;6.35;;
27957;SDS011;15295;42.658;23.374;2023-04-25T08:51:46;9.98;;;5.65;;
27957;SDS011;15295;42.658;23.374;2023-04-25T08:54:13;14.05;;;8.32;;
27957;SDS011;15295;42.658;23.374;2023-04-25T08:56:47;8.43;;;3.30;;
27957;SDS011;15295;42.658;23.374;2023-04-25T08:59:16;10.75;;;6.28;;
27957;SDS011;15295;42.658;23.374;2023-04-25T09:01:43;5.40;;;3.53;;
27957;SDS011;15295;42.658;23.374;2023-04-25T09:04:09;13.70;;;10.35;;
27957;SDS011;15295;42.658;23.374;2023-04-25T09:06:39;10.60;;;6.32;;
27957;SDS011;15295;42.658;23.374;2023-04-25T09:09:08;14.32;;;7.22;;
27957;SDS011;15295;42.658;23.374;2023-04-25T09:11:36;9.05;;;7.40;;
27957;SDS011;15295;42.658;23.374;2023-04-25T09:14:17;15.30;;;9.45;;
27957;SDS011;15295;42.658;23.374;2023-04-25T09:19:22;9.98;;;7.43;;
27957;SDS011;15295;42.658;23.374;2023-04-25T09:21:53;12.65;;;7.28;;
27957;SDS011;15295;42.658;23.374;2023-04-25T09:27:03;12.07;;;6.85;;
27957;SDS011;15295;42.658;23.374;2023-04-25T09:29:39;12.70;;;5.70;;
27957;SDS011;15295;42.658;23.374;2023-04-25T09:32:20;8.63;;;6.30;;
27957;SDS011;15295;42.658;23.374;2023-04-25T09:34:54;9.18;;;6.40;;
27957;SDS011;15295;42.658;23.374;2023-04-25T09:37:24;9.85;;;5.97;;
27957;SDS011;15295;42.658;23.374;2023-04-25T09:40:03;7.38;;;5.65;;
27957;SDS011;15295;42.658;23.374;2023-04-25T09:42:31;8.75;;;5.60;;
27957;SDS011;15295;42.658;23.374;2023-04-25T09:44:59;9.93;;;6.40;;
27957;SDS011;15295;42.658;23.374;2023-04-25T09:47:26;6.32;;;5.47;;
27957;SDS011;15295;42.658;23.374;2023-04-25T09:49:53;7.85;;;5.68;;
27957;SDS011;15295;42.658;23.374;2023-04-25T09:52:21;7.28;;;5.35;;
27957;SDS011;15295;42.658;23.374;2023-04-25T09:54:49;8.73;;;6.10;;
27957;SDS011;15295;42.658;23.374;2023-04-25T09:57:18;12.48;;;6.10;;
27957;SDS011;15295;42.658;23.374;2023-04-25T09:59:49;13.52;;;6.43;;
27957;SDS011;15295;42.658;23.374;2023-04-25T10:02:20;12.02;;;5.60;;
27957;SDS011;15295;42.658;23.374;2023-04-25T10:04:51;10.10;;;5.50;;
27957;SDS011;15295;42.658;23.374;2023-04-25T10:07:24;14.55;;;6.03;;
27957;SDS011;15295;42.658;23.374;2023-04-25T10:09:59;18.92;;;9.65;;
27957;SDS011;15295;42.658;23.374;2023-04-25T10:12:29;10.50;;;5.33;;
27957;SDS011;15295;42.658;23.374;2023-04-25T10:14:58;20.02;;;7.40;;
27957;SDS011;15295;42.658;23.374;2023-04-25T10:17:28;10.02;;;6.47;;
27957;SDS011;15295;42.658;23.374;2023-04-25T10:19:55;10.88;;;6.10;;
27957;SDS011;15295;42.658;23.374;2023-04-25T10:22:38;12.23;;;4.93;;
27957;SDS011;15295;42.658;23.374;2023-04-25T10:25:07;15.13;;;7.50;;
27957;SDS011;15295;42.658;23.374;2023-04-25T10:27:35;11.07;;;6.10;;
27957;SDS011;15295;42.658;23.374;2023-04-25T10:30:09;11.75;;;6.68;;
27957;SDS011;15295;42.658;23.374;2023-04-25T10:32:41;16.80;;;8.82;;
27957;SDS011;15295;42.658;23.374;2023-04-25T10:35:15;8.95;;;5.85;;
27957;SDS011;15295;42.658;23.374;2023-04-25T10:37:58;7.63;;;4.20;;
27957;SDS011;15295;42.658;23.374;2023-04-25T10:40:29;12.55;;;5.30;;
27957;SDS011;15295;42.658;23.374;2023-04-25T10:42:55;9.80;;;3.75;;
27957;SDS011;15295;42.658;23.374;2023-04-25T10:45:53;8.65;;;4.90;;
27957;SDS011;15295;42.658;23.374;2023-04-25T10:48:25;13.90;;;7.35;;
27957;SDS011;15295;42.658;23.374;2023-04-25T10:51:09;10.13;;;5.75;;
27957;SDS011;15295;42.658;23.374;2023-04-25T10:53:35;5.28;;;3.28;;
27957;SDS011;15295;42.658;23.374;2023-04-25T10:56:11;11.25;;;4.03;;
27957;SDS011;15295;42.658;23.374;2023-04-25T10:58:41;8.88;;;3.72;;
27957;SDS011;15295;42.658;23.374;2023-04-25T11:01:07;4.70;;;2.10;;
27957;SDS011;15295;42.658;23.374;2023-04-25T11:03:32;11.52;;;3.38;;
27957;SDS011;15295;42.658;23.374;2023-04-25T11:06:04;13.25;;;4.22;;
27957;SDS011;15295;42.658;23.374;2023-04-25T11:08:47;13.88;;;4.10;;
27957;SDS011;15295;42.658;23.374;2023-04-25T11:11:16;13.50;;;4.38;;
27957;SDS011;15295;42.658;23.374;2023-04-25T11:13:43;9.23;;;2.97;;
27957;SDS011;15295;42.658;23.374;2023-04-25T11:16:08;6.85;;;3.35;;
27957;SDS011;15295;42.658;23.374;2023-04-25T11:18:34;4.90;;;2.00;;
27957;SDS011;15295;42.658;23.374;2023-04-25T11:21:00;4.32;;;1.95;;
27957;SDS011;15295;42.658;23.374;2023-04-25T11:23:27;5.53;;;2.13;;
27957;SDS011;15295;42.658;23.374;2023-04-25T11:25:55;3.15;;;2.13;;
27957;SDS011;15295;42.658;23.374;2023-04-25T11:28:21;7.38;;;2.25;;
27957;SDS011;15295;42.658;23.374;2023-04-25T11:30:49;3.58;;;2.22;;
27957;SDS011;15295;42.658;23.374;2023-04-25T11:33:17;10.30;;;2.80;;
27957;SDS011;15295;42.658;23.374;2023-04-25T11:35:43;7.72;;;2.92;;
27957;SDS011;15295;42.658;23.374;2023-04-25T11:38:08;4.75;;;2.38;;
27957;SDS011;15295;42.658;23.374;2023-04-25T11:40:35;8.82;;;2.60;;
27957;SDS011;15295;42.658;23.374;2023-04-25T11:43:01;8.55;;;3.10;;
27957;SDS011;15295;42.658;23.374;2023-04-25T11:45:26;4.88;;;3.00;;
27957;SDS011;15295;42.658;23.374;2023-04-25T11:47:52;6.57;;;3.20;;
27957;SDS011;15295;42.658;23.374;2023-04-25T11:50:18;5.28;;;2.65;;
27957;SDS011;15295;42.658;23.374;2023-04-25T11:52:44;6.95;;;3.10;;
27957;SDS011;15295;42.658;23.374;2023-04-25T11:55:19;7.72;;;3.53;;
27957;SDS011;15295;42.658;23.374;2023-04-25T11:57:47;6.03;;;1.98;;
27957;SDS011;15295;42.658;23.374;2023-04-25T12:00:17;9.77;;;1.60;;
27957;SDS011;15295;42.658;23.374;2023-04-25T12:02:45;2.40;;;1.40;;
27957;SDS011;15295;42.658;23.374;2023-04-25T12:05:25;3.78;;;1.63;;
27957;SDS011;15295;42.658;23.374;2023-04-25T12:07:53;3.85;;;1.55;;
27957;SDS011;15295;42.658;23.374;2023-04-25T12:10:18;6.03;;;2.40;;
27957;SDS011;15295;42.658;23.374;2023-04-25T12:12:45;3.47;;;1.90;;
27957;SDS011;15295;42.658;23.374;2023-04-25T12:15:19;3.08;;;1.15;;
27957;SDS011;15295;42.658;23.374;2023-04-25T12:17:50;2.33;;;0.85;;
27957;SDS011;15295;42.658;23.374;2023-04-25T12:20:18;1.52;;;0.90;;
27957;SDS011;15295;42.658;23.374;2023-04-25T12:42:00;4.63;;;1.55;;
27957;SDS011;15295;42.658;23.374;2023-04-25T12:49:55;12.02;;;5.53;;
27957;SDS011;15295;42.658;23.374;2023-04-25T12:52:27;6.63;;;1.80;;
27957;SDS011;15295;42.658;23.374;2023-04-25T12:54:54;8.80;;;2.95;;
27957;SDS011;15295;42.658;23.374;2023-04-25T12:57:34;5.97;;;2.38;;
27957;SDS011;15295;42.658;23.374;2023-04-25T13:00:04;14.93;;;6.63;;
27957;SDS011;15295;42.658;23.374;2023-04-25T13:02:40;6.00;;;3.05;;
27957;SDS011;15295;42.658;23.374;2023-04-25T13:05:06;9.75;;;3.42;;
27957;SDS011;15295;42.658;23.374;2023-04-25T13:07:31;4.90;;;1.80;;
27957;SDS011;15295;42.658;23.374;2023-04-25T13:34:17;9.52;;;1.77;;
27957;SDS011;15295;42.658;23.374;2023-04-25T13:36:43;4.68;;;2.05;;
27957;SDS011;15295;42.658;23.374;2023-04-25T13:39:08;5.97;;;1.92;;
27957;SDS011;15295;42.658;23.374;2023-04-25T13:41:34;4.82;;;2.22;;
27957;SDS011;15295;42.658;23.374;2023-04-25T13:44:00;5.03;;;2.33;;
27957;SDS011;15295;42.658;23.374;2023-04-25T13:46:26;6.13;;;3.35;;
27957;SDS011;15295;42.658;23.374;2023-04-25T13:48:52;5.18;;;2.30;;
27957;SDS011;15295;42.658;23.374;2023-04-25T13:51:17;5.40;;;2.28;;
27957;SDS011;15295;42.658;23.374;2023-04-25T13:53:43;9.52;;;2.70;;
27957;SDS011;15295;42.658;23.374;2023-04-25T13:56:09;6.85;;;2.90;;
27957;SDS011;15295;42.658;23.374;2023-04-25T13:58:36;3.83;;;2.05;;
27957;SDS011;15295;42.658;23.374;2023-04-25T14:01:02;3.20;;;1.95;;
27957;SDS011;15295;42.658;23.374;2023-04-25T14:05:56;7.10;;;2.45;;
27957;SDS011;15295;42.658;23.374;2023-04-25T14:08:22;6.78;;;2.15;;
27957;SDS011;15295;42.658;23.374;2023-04-25T14:10:47;2.15;;;1.60;;
27957;SDS011;15295;42.658;23.374;2023-04-25T14:13:14;4.40;;;2.60;;
27957;SDS011;15295;42.658;23.374;2023-04-25T14:15:40;5.70;;;2.20;;
27957;SDS011;15295;42.658;23.374;2023-04-25T14:18:05;3.58;;;1.80;;
27957;SDS011;15295;42.658;23.374;2023-04-25T14:20:40;3.05;;;1.70;;
27957;SDS011;15295;42.658;23.374;2023-04-25T14:43:59;3.53;;;1.60;;
27957;SDS011;15295;42.658;23.374;2023-04-25T14:46:24;2.38;;;1.60;;
27957;SDS011;15295;42.658;23.374;2023-04-25T14:49:00;3.22;;;1.60;;
27957;SDS011;15295;42.658;23.374;2023-04-25T14:51:52;2.88;;;1.50;;
27957;SDS011;15295;42.658;23.374;2023-04-25T14:54:21;1.38;;;1.23;;
27957;SDS011;15295;42.658;23.374;2023-04-25T14:56:46;2.42;;;1.70;;
27957;SDS011;15295;42.658;23.374;2023-04-25T14:59:12;2.90;;;1.67;;
27957;SDS011;15295;42.658;23.374;2023-04-25T15:01:40;3.95;;;1.40;;
27957;SDS011;15295;42.658;23.374;2023-04-25T15:04:07;3.38;;;1.80;;
27957;SDS011;15295;42.658;23.374;2023-04-25T15:06:33;2.40;;;1.52;;
27957;SDS011;15295;42.658;23.374;2023-04-25T15:08:58;3.90;;;1.48;;
27957;SDS011;15295;42.658;23.374;2023-04-25T15:11:24;5.97;;;1.67;;
27957;SDS011;15295;42.658;23.374;2023-04-25T15:13:49;3.28;;;1.75;;
27957;SDS011;15295;42.658;23.374;2023-04-25T15:16:15;2.25;;;1.55;;
27957;SDS011;15295;42.658;23.374;2023-04-25T15:18:42;4.53;;;2.03;;
27957;SDS011;15295;42.658;23.374;2023-04-25T15:21:08;4.03;;;2.28;;
27957;SDS011;15295;42.658;23.374;2023-04-25T15:23:33;2.22;;;1.80;;
27957;SDS011;15295;42.658;23.374;2023-04-25T15:25:59;5.50;;;2.90;;
27957;SDS011;15295;42.658;23.374;2023-04-25T15:28:24;3.53;;;1.95;;
27957;SDS011;15295;42.658;23.374;2023-04-25T15:30:50;4.60;;;2.22;;
27957;SDS011;15295;42.658;23.374;2023-04-25T15:33:16;4.40;;;2.50;;
27957;SDS011;15295;42.658;23.374;2023-04-25T15:35:42;3.38;;;2.30;;
27957;SDS011;15295;42.658;23.374;2023-04-25T15:38:07;6.13;;;2.20;;
27957;SDS011;15295;42.658;23.374;2023-04-25T15:40:35;7.20;;;3.20;;
27957;SDS011;15295;42.658;23.374;2023-04-25T15:43:00;5.18;;;3.22;;
27957;SDS011;15295;42.658;23.374;2023-04-25T15:45:25;5.55;;;3.70;;
27957;SDS011;15295;42.658;23.374;2023-04-25T15:47:52;9.43;;;4.30;;